Time;durP1;ratioP1;P1;durP2;ratioP2;P2;SDS_P1;SDS_P2;PMS_P1;PMS_P2;Temp;Humidity;BMP_temperature;BMP_pressure;BME280_temperature;BME280_humidity;BME280_pressure;Samples;Min_cycle;Max_cycle;Signal;HPM_P1;HPM_P2
2022/02/10 00:05:53;;;;;;;4.13;1.23;;;8.90;99.90;;;;;;4993953;28;20210;-79
2022/02/10 00:17:13;;;;;;;4.17;1.37;;;8.90;99.90;;;;;;5025578;28;20201;-79
2022/02/10 00:22:45;;;;;;;7.23;1.53;;;8.90;99.90;;;;;;4989358;28;20302;-79
2022/02/10 00:36:24;;;;;;;5.60;1.20;;;8.80;99.90;;;;;;5033979;28;20285;-79
2022/02/10 00:39:01;;;;;;;3.93;1.33;;;8.70;99.90;;;;;;5034058;28;20202;-78
2022/02/10 00:41:29;;;;;;;2.03;0.93;;;8.80;99.90;;;;;;5034547;28;20230;-79
2022/02/10 00:43:59;;;;;;;1.63;0.70;;;8.80;99.90;;;;;;5033772;28;20556;-79
2022/02/10 00:46:32;;;;;;;1.83;1.07;;;8.90;99.90;;;;;;5033665;28;20338;-79
2022/02/10 00:49:00;;;;;;;1.67;0.90;;;8.90;99.90;;;;;;5052463;28;20194;-79
2022/02/10 00:51:30;;;;;;;1.57;0.83;;;8.20;99.90;;;;;;5051855;28;20206;-78
2022/02/10 00:53:58;;;;;;;4.53;1.20;;;9.00;99.90;;;;;;5051872;28;20197;-80
2022/02/10 00:56:31;;;;;;;3.73;1.10;;;9.00;99.90;;;;;;5047510;28;20575;-79
2022/02/10 00:59:09;;;;;;;2.23;0.90;;;9.10;99.90;;;;;;5051671;28;20202;-79
2022/02/10 01:10:26;;;;;;;3.70;1.37;;;9.20;99.90;;;;;;5052183;28;20187;-79
2022/02/10 01:10:32;;;;;;;10.27;2.20;;;9.20;99.90;;;;;;5013717;28;20218;-77
2022/02/10 01:13:07;;;;;;;8.13;1.80;;;9.10;99.90;;;;;;5049944;28;20226;-79
2022/02/10 01:29:45;;;;;;;2.07;0.87;;;8.80;99.90;;;;;;5032587;28;20563;-79
2022/02/10 01:32:18;;;;;;;1.87;0.70;;;9.00;99.90;;;;;;5033281;28;20709;-78
2022/02/10 01:34:52;;;;;;;3.60;0.70;;;8.90;99.90;;;;;;5025528;28;20519;-79
2022/02/10 01:37:22;;;;;;;2.40;0.77;;;9.00;99.90;;;;;;5045851;28;20208;-79
2022/02/10 01:39:54;;;;;;;4.67;1.30;;;9.10;99.90;;;;;;5049785;28;20277;-79
2022/02/10 02:04:52;;;;;;;2.50;1.23;;;8.80;99.90;;;;;;5029092;28;20199;-79
2022/02/10 02:07:27;;;;;;;3.23;1.13;;;8.80;99.90;;;;;;5030767;28;20209;-79
2022/02/10 02:09:56;;;;;;;2.17;0.73;;;8.70;99.90;;;;;;5029656;28;20199;-79
2022/02/10 02:12:23;;;;;;;6.53;1.50;;;8.70;99.90;;;;;;5030830;28;20219;-78
2022/02/10 02:14:52;;;;;;;6.10;1.70;;;8.80;99.90;;;;;;5027434;28;20321;-79
2022/02/10 02:17:20;;;;;;;4.23;1.43;;;8.70;99.90;;;;;;5030628;28;20191;-79
2022/02/10 02:19:56;;;;;;;7.10;1.60;;;8.70;99.90;;;;;;5030306;28;20265;-79
2022/02/10 02:22:24;;;;;;;7.53;1.63;;;8.70;99.90;;;;;;5030411;28;20278;-79
2022/02/10 02:24:53;;;;;;;6.13;1.30;;;8.70;99.90;;;;;;5027811;28;20209;-78
2022/02/10 02:27:20;;;;;;;5.67;1.60;;;8.70;99.90;;;;;;5027791;28;20654;-79
2022/02/10 02:29:58;;;;;;;6.33;1.40;;;8.70;99.90;;;;;;5028283;28;20215;-79
2022/02/10 02:32:38;;;;;;;3.80;1.30;;;8.70;99.90;;;;;;5024313;28;20701;-79
2022/02/10 03:05:54;;;;;;;1.53;0.80;;;8.70;99.90;;;;;;5048335;28;20557;-79
2022/02/10 03:08:23;;;;;;;5.83;1.17;;;8.70;99.90;;;;;;5048426;28;20490;-79
2022/02/10 03:11:04;;;;;;;6.43;1.57;;;8.60;99.90;;;;;;5048684;28;20205;-78
2022/02/10 03:13:37;;;;;;;5.23;1.30;;;8.60;99.90;;;;;;5038384;28;20288;-78
2022/02/10 03:18:58;;;;;;;7.20;1.50;;;8.60;99.90;;;;;;5052338;28;20277;-79
2022/02/10 03:21:46;;;;;;;4.33;1.10;;;8.70;99.90;;;;;;5049527;28;20212;-79
2022/02/10 04:03:33;;;;;;;5.97;1.37;;;8.20;99.90;;;;;;4974449;28;20753;-79
2022/02/10 04:06:17;;;;;;;4.87;1.30;;;8.20;99.90;;;;;;4973483;28;20300;-78
2022/02/10 04:09:10;;;;;;;8.07;1.40;;;8.20;99.90;;;;;;5034398;28;20663;-79
2022/02/10 04:14:37;;;;;;;1.13;0.80;;;8.30;99.90;;;;;;5047143;28;20217;-79
2022/02/10 04:17:24;;;;;;;2.57;1.00;;;8.30;99.90;;;;;;5052204;28;20241;-78
2022/02/10 04:20:11;;;;;;;5.47;1.50;;;8.30;99.90;;;;;;5024005;28;20212;-79
2022/02/10 04:22:49;;;;;;;8.00;1.63;;;8.40;99.90;;;;;;5052633;28;20197;-80
2022/02/10 04:25:36;;;;;;;7.13;1.80;;;8.30;99.90;;;;;;5051515;28;20205;-79
2022/02/10 04:28:23;;;;;;;3.37;1.20;;;8.30;99.90;;;;;;5043882;28;20223;-79
2022/02/10 04:31:30;;;;;;;4.10;1.23;;;8.20;99.90;;;;;;5045909;28;20198;-78
2022/02/10 04:56:32;;;;;;;10.13;1.63;;;7.90;99.90;;;;;;4993536;28;20749;-78
2022/02/10 04:59:15;;;;;;;3.23;1.17;;;7.90;99.90;;;;;;5032938;28;20216;-79
2022/02/10 05:01:58;;;;;;;5.10;1.03;;;7.90;99.90;;;;;;5039295;28;20241;-79
2022/02/10 05:04:55;;;;;;;3.37;1.13;;;7.90;99.90;;;;;;5051680;28;20201;-78
2022/02/10 05:21:21;;;;;;;1.80;0.90;;;8.00;99.90;;;;;;5033797;28;20221;-79
2022/02/10 05:24:08;;;;;;;1.20;0.93;;;8.00;99.90;;;;;;5032875;28;20550;-79
2022/02/10 05:35:14;;;;;;;0.87;0.40;;;8.00;99.90;;;;;;5118609;27;20279;-80
2022/02/10 05:37:44;;;;;;;0.50;0.50;;;8.00;99.90;;;;;;5107675;28;20202;-80
2022/02/10 05:40:18;;;;;;;0.40;0.40;;;8.00;99.90;;;;;;5106736;28;20202;-80
2022/02/10 05:45:46;;;;;;;7.37;1.90;;;8.00;99.90;;;;;;5045432;28;20208;-79
2022/02/10 05:48:36;;;;;;;7.17;1.80;;;8.00;99.90;;;;;;5106982;28;20200;-79
2022/02/10 05:51:43;;;;;;;5.00;2.00;;;8.00;99.90;;;;;;5107360;28;20236;-79
2022/02/10 05:54:42;;;;;;;9.00;2.40;;;7.90;99.90;;;;;;5088449;28;20302;-79
2022/02/10 05:57:23;;;;;;;13.70;3.90;;;7.90;99.90;;;;;;5100238;28;20249;-79
2022/02/10 06:00:24;;;;;;;9.83;2.87;;;7.80;99.90;;;;;;5106238;28;20212;-80
2022/02/10 06:50:07;;;;;;;7.47;2.83;;;7.60;99.90;;;;;;5086930;28;20265;-79
2022/02/10 06:52:41;;;;;;;2.80;1.77;;;7.60;99.90;;;;;;5075469;28;20662;-80
2022/02/10 06:55:20;;;;;;;2.20;1.60;;;7.60;99.90;;;;;;5087702;28;20323;-80
2022/02/10 07:06:15;;;;;;;4.10;1.90;;;7.40;99.90;;;;;;5085488;28;20208;-80
2022/02/10 07:11:44;;;;;;;8.70;3.27;;;7.40;99.90;;;;;;5065547;28;20207;-80
2022/02/10 07:14:33;;;;;;;6.27;3.37;;;7.40;99.90;;;;;;5092142;28;20211;-79
2022/02/10 07:53:14;;;;;;;4.70;2.50;;;7.40;99.90;;;;;;5072719;28;20334;-79
2022/02/10 07:56:11;;;;;;;4.47;2.17;;;7.40;99.90;;;;;;5090226;28;20193;-79
2022/02/10 08:57:10;;;;;;;3.00;1.50;;;8.70;99.90;;;;;;5081379;28;20349;-79
2022/02/10 09:00:05;;;;;;;2.83;1.83;;;8.80;99.90;;;;;;5089642;28;20184;-79
2022/02/10 09:03:05;;;;;;;5.67;1.90;;;8.80;99.90;;;;;;5090807;28;20191;-79
2022/02/10 09:05:53;;;;;;;12.97;2.30;;;8.90;99.90;;;;;;5072225;28;20193;-80
2022/02/10 09:14:31;;;;;;;10.07;2.20;;;8.70;99.90;;;;;;5077088;28;20266;-80
2022/02/10 09:59:12;;;;;;;9.63;2.17;;;9.00;99.90;;;;;;5064468;28;20945;-80
2022/02/10 10:01:45;;;;;;;8.77;3.10;;;9.30;99.90;;;;;;5077589;28;20268;-79
2022/02/10 10:04:20;;;;;;;4.30;1.90;;;9.00;99.90;;;;;;5089468;28;20199;-78
2022/02/10 10:06:56;;;;;;;8.70;1.80;;;9.10;99.90;;;;;;5079699;28;20203;-80
2022/02/10 10:09:40;;;;;;;6.67;1.73;;;9.30;99.90;;;;;;5071597;28;20304;-79
2022/02/10 10:15:28;;;;;;;5.77;2.20;;;9.50;99.90;;;;;;5036104;28;20214;-79
2022/02/10 10:18:24;;;;;;;14.97;2.47;;;9.50;99.90;;;;;;5064716;28;20197;-80
2022/02/10 10:21:12;;;;;;;3.23;1.90;;;9.40;99.90;;;;;;5092513;28;20193;-80
2022/02/10 10:23:55;;;;;;;6.83;2.43;;;9.40;99.90;;;;;;5094038;28;20734;-80
2022/02/10 10:52:24;;;;;;;8.60;1.90;;;9.60;99.90;;;;;;5082996;28;20195;-79
2022/02/10 10:55:04;;;;;;;4.23;1.80;;;9.80;99.90;;;;;;5091564;28;20204;-79
2022/02/10 10:57:39;;;;;;;7.40;2.30;;;10.00;99.90;;;;;;5075059;28;20236;-79
2022/02/10 11:39:26;;;;;;;7.03;2.60;;;9.30;99.90;;;;;;5091589;28;20509;-80
2022/02/10 11:45:57;;;;;;;12.43;2.23;;;9.40;99.90;;;;;;5088790;28;20315;-79
2022/02/10 12:30:06;;;;;;;7.57;2.10;;;9.70;99.90;;;;;;5070975;28;20201;-79
2022/02/10 12:39:05;;;;;;;10.50;2.10;;;9.80;99.90;;;;;;5052062;28;20756;-79
2022/02/10 13:24:19;;;;;;;5.50;1.97;;;9.70;99.90;;;;;;5068595;28;20643;-79
2022/02/10 14:09:00;;;;;;;5.17;2.13;;;9.60;99.90;;;;;;5069484;28;20199;-80
2022/02/10 14:09:24;;;;;;;3.40;2.40;;;9.50;99.90;;;;;;5055551;28;20240;-80
2022/02/10 14:14:43;;;;;;;3.80;2.03;;;9.40;99.90;;;;;;5033602;28;20657;-79
2022/02/10 14:17:25;;;;;;;3.63;1.77;;;9.40;99.90;;;;;;5073611;28;20258;-79
2022/02/10 14:19:58;;;;;;;1.30;1.20;;;9.40;99.90;;;;;;5055516;28;20295;-79
2022/02/10 14:22:38;;;;;;;1.53;1.23;;;9.50;99.90;;;;;;5072201;28;20317;-79
2022/02/10 14:27:53;;;;;;;3.37;2.03;;;9.50;99.90;;;;;;5055413;28;20334;-78
2022/02/10 14:30:20;;;;;;;2.80;1.93;;;9.50;99.90;;;;;;5073210;28;20294;-79
2022/02/10 14:32:49;;;;;;;3.00;1.90;;;9.50;99.90;;;;;;5075131;28;20724;-79
2022/02/10 14:35:23;;;;;;;3.60;2.00;;;9.50;99.90;;;;;;5091076;28;20242;-79
2022/02/10 14:38:16;;;;;;;5.80;2.90;;;9.50;99.90;;;;;;5074913;28;20207;-79
2022/02/10 15:10:50;;;;;;;4.17;2.20;;;9.40;99.90;;;;;;5091373;28;20333;-79
2022/02/10 15:51:03;;;;;;;4.63;2.47;;;8.70;99.90;;;;;;5073745;28;20197;-79
2022/02/10 15:56:49;;;;;;;2.90;2.00;;;8.60;99.90;;;;;;5071412;28;20239;-79
2022/02/10 16:18:49;;;;;;;7.00;3.47;;;8.40;99.90;;;;;;5060274;28;20710;-80
2022/02/10 16:21:27;;;;;;;7.87;3.30;;;8.30;99.90;;;;;;5063377;28;20550;-80
2022/02/10 16:23:59;;;;;;;8.27;2.67;;;8.20;99.90;;;;;;5072680;28;20652;-80
2022/02/10 16:26:40;;;;;;;3.83;2.60;;;8.20;99.90;;;;;;5090403;28;20296;-80
2022/02/10 16:29:15;;;;;;;6.03;3.20;;;8.20;99.90;;;;;;5069614;28;20214;-80
2022/02/10 16:31:42;;;;;;;6.93;3.17;;;8.20;99.90;;;;;;5073141;28;20291;-81
2022/02/10 16:34:13;;;;;;;3.53;2.23;;;8.20;99.90;;;;;;5072342;28;20240;-80
2022/02/10 16:36:40;;;;;;;5.30;2.90;;;8.10;99.90;;;;;;5090661;28;20279;-80
2022/02/10 16:39:08;;;;;;;5.50;2.90;;;8.10;99.90;;;;;;5090861;28;20317;-79
2022/02/10 16:41:35;;;;;;;4.70;2.87;;;8.20;99.90;;;;;;5071941;28;20208;-80
2022/02/10 16:44:02;;;;;;;5.63;2.77;;;8.20;99.90;;;;;;5071964;28;20213;-78
2022/02/10 16:46:32;;;;;;;5.00;2.40;;;8.10;99.90;;;;;;5072334;28;20208;-79
2022/02/10 16:49:00;;;;;;;6.00;2.93;;;8.10;99.90;;;;;;5070944;28;20253;-79
2022/02/10 16:51:27;;;;;;;2.50;2.13;;;8.10;99.90;;;;;;5072569;28;20204;-80
2022/02/10 16:54:03;;;;;;;3.17;2.10;;;8.20;99.90;;;;;;5072021;28;20214;-80
2022/02/10 16:56:37;;;;;;;4.23;3.07;;;8.20;99.90;;;;;;5089125;28;20569;-80
2022/02/10 16:59:27;;;;;;;6.77;2.73;;;8.20;99.90;;;;;;5089049;28;20530;-80
2022/02/10 17:02:22;;;;;;;7.40;3.70;;;8.20;99.90;;;;;;5088403;28;20196;-81
2022/02/10 17:05:16;;;;;;;4.17;2.87;;;8.10;99.90;;;;;;5078726;28;20200;-80
2022/02/10 17:19:03;;;;;;;7.00;4.03;;;7.80;99.90;;;;;;5071449;28;20192;-80
2022/02/10 17:27:05;;;;;;;7.47;4.00;;;7.80;99.90;;;;;;5090134;28;20192;-79
2022/02/10 17:29:43;;;;;;;8.83;3.90;;;7.80;99.90;;;;;;5071133;28;20200;-79
2022/02/10 17:32:21;;;;;;;8.57;4.07;;;7.70;99.90;;;;;;5070585;28;20207;-80
2022/02/10 17:35:20;;;;;;;11.20;5.27;;;7.70;99.90;;;;;;5071149;28;20776;-79
2022/02/10 17:46:17;;;;;;;7.40;4.20;;;7.60;99.90;;;;;;5089463;28;20640;-79
2022/02/10 17:51:42;;;;;;;8.10;3.73;;;7.60;99.90;;;;;;5057355;28;20196;-78
2022/02/10 17:54:13;;;;;;;4.40;2.77;;;7.70;99.90;;;;;;5071388;28;20232;-79
2022/02/10 17:56:44;;;;;;;6.17;3.73;;;7.60;99.90;;;;;;5067480;28;20249;-80
2022/02/10 17:59:21;;;;;;;8.00;3.57;;;8.10;99.90;;;;;;5085650;28;20211;-81
2022/02/10 18:01:52;;;;;;;9.00;4.47;;;7.60;99.90;;;;;;5089695;28;20188;-81
2022/02/10 18:04:22;;;;;;;7.73;3.70;;;7.60;99.90;;;;;;5082436;28;20283;-80
2022/02/10 18:06:55;;;;;;;9.33;3.50;;;7.70;99.90;;;;;;5067177;28;20207;-81
2022/02/10 18:14:58;;;;;;;4.30;3.10;;;7.50;99.90;;;;;;5065981;28;20240;-80
2022/02/10 18:17:33;;;;;;;6.50;3.70;;;7.50;99.90;;;;;;5088939;28;20295;-79
2022/02/10 18:20:22;;;;;;;7.17;3.90;;;7.60;99.90;;;;;;5088263;28;20192;-80
2022/02/10 18:23:02;;;;;;;8.20;4.07;;;7.50;99.90;;;;;;5086908;28;20197;-80
2022/02/10 18:25:44;;;;;;;9.77;4.00;;;7.50;99.90;;;;;;5088397;28;20272;-80
2022/02/10 18:28:34;;;;;;;6.90;3.67;;;7.50;99.90;;;;;;5086216;28;20552;-80
2022/02/10 18:34:29;;;;;;;4.97;3.37;;;7.60;99.90;;;;;;5089063;28;20259;-80
2022/02/10 19:05:46;;;;;;;10.57;4.50;;;7.60;99.90;;;;;;5091133;28;20295;-78
2022/02/10 19:08:26;;;;;;;8.87;4.70;;;7.70;99.90;;;;;;5093098;28;20332;-79
2022/02/10 19:10:57;;;;;;;12.00;5.27;;;7.60;99.90;;;;;;5092470;28;20202;-79
2022/02/10 19:13:28;;;;;;;10.87;4.47;;;7.60;99.90;;;;;;5093484;28;20230;-80
2022/02/10 19:16:02;;;;;;;5.90;3.53;;;7.70;99.90;;;;;;5078294;28;20222;-79
2022/02/10 19:18:30;;;;;;;9.40;4.10;;;7.70;99.90;;;;;;5087951;28;20192;-79
2022/02/10 19:20:57;;;;;;;6.87;3.97;;;7.80;99.90;;;;;;5074877;28;20199;-79
2022/02/10 19:23:27;;;;;;;12.33;5.00;;;7.80;99.90;;;;;;5092890;28;20287;-80
2022/02/10 19:26:09;;;;;;;10.97;5.30;;;6.90;99.90;;;;;;5092369;28;20192;-79
2022/02/10 19:28:46;;;;;;;10.37;5.50;;;7.80;99.90;;;;;;5093403;28;20192;-79
2022/02/10 19:31:17;;;;;;;12.17;5.07;;;7.80;99.90;;;;;;5092240;28;20280;-80
2022/02/10 19:33:44;;;;;;;10.43;4.93;;;7.70;99.90;;;;;;5092268;28;20281;-79
2022/02/10 19:36:13;;;;;;;11.03;5.03;;;7.00;99.90;;;;;;5074010;28;20220;-79
2022/02/10 19:39:17;;;;;;;;;;;;;;;;;;;;;
2022/02/10 19:42:13;;;;;;;14.13;5.93;;;7.60;99.90;;;;;;5043763;28;20580;-81
2022/02/10 19:44:48;;;;;;;11.70;4.90;;;7.60;99.90;;;;;;5088553;28;20543;-80
2022/02/10 19:47:20;;;;;;;8.33;4.37;;;7.50;99.90;;;;;;5092284;28;20278;-79
2022/02/10 19:49:53;;;;;;;8.13;3.33;;;7.50;99.90;;;;;;5073660;28;20208;-79
2022/02/10 19:52:23;;;;;;;9.27;3.90;;;7.40;99.90;;;;;;5092606;28;20189;-79
2022/02/10 19:54:57;;;;;;;8.67;4.00;;;7.50;99.90;;;;;;5068289;28;20201;-79
2022/02/10 19:57:26;;;;;;;8.00;4.20;;;7.50;99.90;;;;;;5086874;28;20196;-79
2022/02/10 19:59:59;;;;;;;6.97;4.03;;;7.00;99.90;;;;;;5073319;28;20287;-79
2022/02/10 20:02:32;;;;;;;7.60;3.70;;;7.60;99.90;;;;;;5086705;28;20194;-79
2022/02/10 20:05:00;;;;;;;9.03;3.57;;;7.60;99.90;;;;;;5091592;28;20204;-79
2022/02/10 20:07:28;;;;;;;8.13;3.73;;;7.60;99.90;;;;;;5075862;28;20551;-80
2022/02/10 20:09:55;;;;;;;9.10;4.17;;;7.60;99.90;;;;;;5086006;28;20270;-80
2022/02/10 20:12:29;;;;;;;4.97;3.20;;;7.50;99.90;;;;;;5066291;28;20196;-79
2022/02/10 20:15:06;;;;;;;8.50;3.93;;;7.50;99.90;;;;;;5074930;28;20346;-79
2022/02/10 20:17:36;;;;;;;4.73;2.73;;;7.50;99.90;;;;;;5087812;28;20300;-79
2022/02/10 20:20:07;;;;;;;6.57;2.57;;;7.50;99.90;;;;;;5070811;28;20197;-78
2022/02/10 20:22:38;;;;;;;7.30;2.97;;;7.50;99.90;;;;;;5064796;28;20209;-79
2022/02/10 20:25:21;;;;;;;6.20;3.00;;;7.50;99.90;;;;;;5092164;28;20192;-80
2022/02/10 20:27:51;;;;;;;6.30;3.17;;;7.50;99.90;;;;;;5085729;28;20207;-80
2022/02/10 20:30:31;;;;;;;2.43;2.03;;;7.00;99.90;;;;;;5073097;28;20201;-79
2022/02/10 20:33:08;;;;;;;3.50;2.07;;;7.50;99.90;;;;;;5088909;28;20271;-80
2022/02/10 20:35:43;;;;;;;3.97;1.93;;;7.40;99.90;;;;;;5095356;28;20282;-80
2022/02/10 20:38:12;;;;;;;3.30;1.73;;;7.40;99.90;;;;;;5081432;28;20292;-80
2022/02/10 20:40:53;;;;;;;2.77;1.67;;;7.40;99.90;;;;;;5068971;28;20207;-79
2022/02/10 20:43:27;;;;;;;4.50;2.13;;;7.50;99.90;;;;;;5088557;28;20292;-79
2022/02/10 20:46:09;;;;;;;2.07;1.67;;;7.20;99.90;;;;;;5090759;28;20196;-79
2022/02/10 20:48:48;;;;;;;5.50;1.93;;;7.40;99.90;;;;;;5085477;28;20276;-80
2022/02/10 20:51:21;;;;;;;2.47;1.37;;;7.40;99.90;;;;;;5091186;28;20685;-81
2022/02/10 20:54:28;;;;;;;;;;;;;;;;;;;;;
2022/02/10 20:57:02;;;;;;;4.37;2.30;;;7.40;99.90;;;;;;5087288;28;20861;-79
2022/02/10 20:59:34;;;;;;;2.53;1.70;;;7.40;99.90;;;;;;5088290;28;20196;-79
2022/02/10 21:02:45;;;;;;;3.43;1.87;;;7.40;99.90;;;;;;5093483;28;20185;-79
2022/02/10 21:05:25;;;;;;;3.60;1.70;;;7.40;99.90;;;;;;5091428;28;20195;-79
2022/02/10 21:08:03;;;;;;;2.13;1.50;;;7.30;99.90;;;;;;5096339;28;20579;-79
2022/02/10 21:10:31;;;;;;;8.07;2.33;;;7.30;99.90;;;;;;5077601;28;20224;-78
2022/02/10 21:13:00;;;;;;;10.83;3.13;;;7.30;99.90;;;;;;5091692;28;20314;-79
2022/02/10 21:15:30;;;;;;;4.63;3.00;;;7.30;99.90;;;;;;5071553;28;20204;-79
2022/02/10 21:18:03;;;;;;;4.90;2.40;;;7.30;99.90;;;;;;5087871;28;20624;-80
2022/02/10 21:20:33;;;;;;;8.43;2.93;;;7.30;99.90;;;;;;5091028;28;20197;-79
2022/02/10 21:23:08;;;;;;;5.37;2.40;;;7.30;99.90;;;;;;5083556;28;20197;-80
2022/02/10 21:25:37;;;;;;;2.67;2.20;;;7.20;99.90;;;;;;5089545;28;20665;-79
2022/02/10 21:28:14;;;;;;;4.20;2.43;;;7.20;99.90;;;;;;5071171;28;20216;-78
2022/02/10 21:30:41;;;;;;;8.23;2.90;;;7.20;99.90;;;;;;5089887;28;20220;-79
2022/02/10 21:33:22;;;;;;;4.53;2.50;;;7.20;99.90;;;;;;5089815;28;20536;-79
2022/02/10 21:36:33;;;;;;;3.60;2.03;;;8.10;99.90;;;;;;5085360;28;20212;-79
2022/02/10 21:38:54;;;;;;;7.53;3.23;;;7.10;99.90;;;;;;5089854;28;20211;-79
2022/02/10 21:42:14;;;;;;;7.60;2.70;;;7.10;99.90;;;;;;5089884;28;20278;-80
2022/02/10 21:59:23;;;;;;;2.53;1.40;;;7.30;99.90;;;;;;5085178;28;20211;-79
2022/02/10 22:34:53;;;;;;;7.60;2.90;;;8.00;99.90;;;;;;5026655;28;20314;-80
2022/02/10 22:37:21;;;;;;;4.93;2.73;;;6.40;99.90;;;;;;5014112;28;20333;-80
2022/02/10 22:39:51;;;;;;;4.77;2.90;;;7.30;99.90;;;;;;5029934;28;20218;-79
2022/02/10 22:42:31;;;;;;;4.30;2.90;;;7.30;99.90;;;;;;5036181;28;20237;-79
2022/02/10 22:44:58;;;;;;;4.33;2.57;;;7.40;99.90;;;;;;5045283;28;20314;-80
2022/02/10 22:47:25;;;;;;;5.03;2.80;;;7.30;99.90;;;;;;5074373;28;20204;-80
2022/02/10 22:49:53;;;;;;;3.77;2.27;;;6.60;99.90;;;;;;5074781;28;20204;-79
2022/02/10 22:52:22;;;;;;;2.73;2.40;;;7.40;99.90;;;;;;5074627;28;20208;-79
2022/02/10 22:54:49;;;;;;;8.60;3.90;;;7.30;99.90;;;;;;5074146;28;20196;-79
2022/02/10 22:57:19;;;;;;;8.80;3.93;;;7.40;99.90;;;;;;5096078;28;20227;-79
2022/02/10 23:00:10;;;;;;;10.90;3.70;;;7.30;99.90;;;;;;5091431;28;20647;-80
2022/02/10 23:02:54;;;;;;;7.93;3.03;;;7.30;99.90;;;;;;5073383;28;20303;-80
2022/02/10 23:05:23;;;;;;;6.57;2.30;;;7.20;99.90;;;;;;5066418;28;20219;-80
2022/02/10 23:10:46;;;;;;;3.50;2.00;;;7.40;99.90;;;;;;5080580;28;20208;-79
2022/02/10 23:13:18;;;;;;;9.40;2.70;;;7.30;99.90;;;;;;5091341;28;20341;-79
2022/02/10 23:15:47;;;;;;;5.43;2.10;;;7.30;99.90;;;;;;5092449;28;20197;-80
2022/02/10 23:18:18;;;;;;;7.37;2.60;;;7.20;99.90;;;;;;5091404;28;20219;-79
2022/02/10 23:20:48;;;;;;;7.27;2.33;;;7.20;99.90;;;;;;5092415;28;20301;-80
2022/02/10 23:23:18;;;;;;;11.27;2.47;;;7.10;99.90;;;;;;5091935;28;20208;-80
2022/02/10 23:25:50;;;;;;;11.00;2.70;;;7.10;99.90;;;;;;5073883;28;20207;-80
2022/02/10 23:28:23;;;;;;;3.53;1.80;;;7.00;99.90;;;;;;5090764;28;20237;-80
2022/02/10 23:30:54;;;;;;;5.03;2.43;;;6.90;99.90;;;;;;5072713;28;20207;-81
2022/02/10 23:33:31;;;;;;;7.53;2.50;;;6.90;99.90;;;;;;5090328;28;20222;-81
2022/02/10 23:39:05;;;;;;;10.40;2.33;;;6.80;99.90;;;;;;5031838;28;20299;-80
2022/02/10 23:44:31;;;;;;;9.77;1.97;;;6.80;99.90;;;;;;5090980;28;20314;-80
2022/02/10 23:47:20;;;;;;;4.87;1.77;;;6.80;99.90;;;;;;5066825;28;20203;-80
2022/02/10 23:49:51;;;;;;;3.10;1.40;;;6.70;99.90;;;;;;5092188;28;20208;-80
2022/02/10 23:52:25;;;;;;;2.70;1.20;;;6.80;99.90;;;;;;5091895;28;20199;-80
2022/02/10 23:54:57;;;;;;;3.37;1.37;;;7.50;99.90;;;;;;5091551;28;20669;-79
2022/02/10 23:57:37;;;;;;;3.37;1.20;;;6.80;99.90;;;;;;5073003;28;20315;-80
